Time;durP1;ratioP1;P1;durP2;ratioP2;P2;SDS_P1;SDS_P2;PMS_P1;PMS_P2;Temp;Humidity;BMP_temperature;BMP_pressure;BME280_temperature;BME280_humidity;BME280_pressure;Samples;Min_cycle;Max_cycle;Signal;HPM_P1;HPM_P2
2023/08/20 00:00:14;;;;;;;17.37;12.60;;;24.40;76.70;;;;;;5009794;28;20582;-70
2023/08/20 00:02:42;;;;;;;17.53;12.00;;;24.40;76.40;;;;;;5014837;28;20639;-71
2023/08/20 00:05:09;;;;;;;22.77;12.40;;;24.30;76.50;;;;;;5022357;28;20949;-71
2023/08/20 00:07:35;;;;;;;19.60;11.57;;;24.00;77.30;;;;;;5018836;28;20446;-71
2023/08/20 00:10:00;;;;;;;20.70;11.40;;;23.90;78.00;;;;;;5015906;28;20428;-71
2023/08/20 00:12:26;;;;;;;20.40;12.00;;;23.80;78.40;;;;;;5021546;28;20427;-72
2023/08/20 00:15:06;;;;;;;19.47;12.33;;;23.70;78.70;;;;;;5019149;28;20184;-70
2023/08/20 00:17:36;;;;;;;21.10;12.50;;;23.60;79.20;;;;;;5017490;28;20225;-70
2023/08/20 00:20:13;;;;;;;17.73;11.33;;;23.60;79.20;;;;;;5010595;28;20471;-71
2023/08/20 00:22:40;;;;;;;18.80;13.00;;;23.60;79.20;;;;;;5014472;28;20458;-71
2023/08/20 00:25:06;;;;;;;20.00;12.10;;;23.60;79.30;;;;;;5015400;28;20445;-70
2023/08/20 00:27:32;;;;;;;18.30;12.63;;;23.70;79.30;;;;;;5019950;28;20427;-70
2023/08/20 00:29:58;;;;;;;18.60;12.43;;;23.80;79.00;;;;;;5017592;28;20429;-70
2023/08/20 00:32:24;;;;;;;24.77;13.17;;;23.70;79.00;;;;;;5022125;28;20501;-70
2023/08/20 00:34:49;;;;;;;16.23;11.20;;;23.70;79.30;;;;;;5015183;28;21035;-70
2023/08/20 00:37:15;;;;;;;18.43;10.93;;;23.90;78.90;;;;;;5025590;28;20180;-71
2023/08/20 00:39:41;;;;;;;20.47;12.53;;;23.90;78.40;;;;;;5023891;28;20635;-70
2023/08/20 00:42:07;;;;;;;18.33;11.97;;;23.90;78.10;;;;;;5020848;28;20216;-72
2023/08/20 00:44:34;;;;;;;18.07;12.50;;;23.90;78.30;;;;;;5015506;28;20569;-71
2023/08/20 00:47:02;;;;;;;17.03;12.10;;;23.80;78.40;;;;;;5015379;28;20804;-71
2023/08/20 00:49:29;;;;;;;15.40;10.43;;;23.80;78.60;;;;;;5022304;28;20445;-71
2023/08/20 00:51:55;;;;;;;16.93;11.63;;;23.80;78.70;;;;;;5017717;28;20505;-71
2023/08/20 00:54:22;;;;;;;24.03;11.97;;;23.80;78.60;;;;;;5017684;28;20428;-71
2023/08/20 00:56:49;;;;;;;17.03;10.70;;;23.80;78.70;;;;;;5019781;28;20420;-70
2023/08/20 00:59:16;;;;;;;23.43;13.63;;;23.80;78.70;;;;;;5012416;28;20546;-71
2023/08/20 01:01:41;;;;;;;18.47;12.50;;;23.80;78.70;;;;;;5018593;28;20502;-72
2023/08/20 01:04:07;;;;;;;22.90;15.20;;;23.70;78.90;;;;;;5016781;28;20421;-70
2023/08/20 01:07:23;;;;;;;26.23;15.70;;;23.70;79.20;;;;;;5012745;28;20180;-70
2023/08/20 01:10:00;;;;;;;17.77;12.63;;;23.60;79.50;;;;;;4993430;28;20212;-72
2023/08/20 01:12:26;;;;;;;21.70;12.37;;;23.70;79.20;;;;;;4992820;28;20436;-71
2023/08/20 01:14:52;;;;;;;18.10;13.00;;;23.80;78.90;;;;;;4990668;28;20440;-72
2023/08/20 01:17:17;;;;;;;16.57;11.00;;;23.90;78.70;;;;;;4991380;28;20649;-70
2023/08/20 01:19:43;;;;;;;18.13;11.43;;;23.90;78.10;;;;;;4996153;28;20228;-71
2023/08/20 01:22:27;;;;;;;21.73;12.40;;;23.70;78.40;;;;;;4987836;28;20621;-70
2023/08/20 01:24:55;;;;;;;18.63;12.60;;;23.60;78.90;;;;;;4985919;28;20348;-71
2023/08/20 01:27:54;;;;;;;17.50;11.77;;;23.40;79.70;;;;;;4990468;28;21031;-71
2023/08/20 01:30:21;;;;;;;20.90;11.90;;;23.30;80.20;;;;;;4987969;28;20468;-71
2023/08/20 01:32:50;;;;;;;22.00;13.30;;;23.30;80.30;;;;;;4990306;28;20940;-70
2023/08/20 01:35:17;;;;;;;16.40;12.50;;;23.20;80.50;;;;;;4990721;28;20428;-69
2023/08/20 01:37:42;;;;;;;18.23;12.20;;;23.20;80.80;;;;;;4990874;28;20427;-70
2023/08/20 01:40:10;;;;;;;20.03;13.67;;;23.20;81.20;;;;;;4994508;28;20567;-72
2023/08/20 01:42:36;;;;;;;18.03;12.27;;;23.20;81.40;;;;;;5011104;28;20271;-72
2023/08/20 01:45:02;;;;;;;16.53;11.40;;;23.30;81.10;;;;;;5017164;28;20433;-71
2023/08/20 01:47:28;;;;;;;17.87;12.70;;;23.30;80.90;;;;;;5022578;28;20443;-71
2023/08/20 01:49:53;;;;;;;19.23;13.33;;;23.30;80.90;;;;;;5014770;28;20200;-71
2023/08/20 01:52:19;;;;;;;20.30;12.60;;;23.30;81.10;;;;;;5007714;28;20588;-71
2023/08/20 01:54:44;;;;;;;15.80;10.90;;;23.30;81.10;;;;;;5017754;28;20186;-71
2023/08/20 01:57:10;;;;;;;16.03;12.50;;;23.40;79.90;;;;;;5021389;28;20259;-70
2023/08/20 01:59:36;;;;;;;25.70;13.10;;;23.40;79.50;;;;;;5017999;28;20266;-71
2023/08/20 02:02:02;;;;;;;20.67;12.20;;;23.30;79.60;;;;;;5003035;28;20211;-70
2023/08/20 02:04:27;;;;;;;20.67;12.27;;;23.30;79.90;;;;;;5017820;28;20187;-71
2023/08/20 02:06:53;;;;;;;19.57;13.47;;;23.20;80.20;;;;;;5013039;28;20856;-71
2023/08/20 02:09:20;;;;;;;18.33;12.13;;;23.10;80.60;;;;;;5016235;28;20179;-71
2023/08/20 02:11:45;;;;;;;18.33;12.40;;;23.10;80.90;;;;;;5013554;28;20201;-71
2023/08/20 02:14:11;;;;;;;19.60;12.30;;;23.10;80.80;;;;;;5012352;28;20443;-70
2023/08/20 02:16:37;;;;;;;19.97;12.87;;;23.10;80.80;;;;;;5021990;28;20243;-70
2023/08/20 02:19:02;;;;;;;21.27;13.57;;;23.10;80.90;;;;;;5017047;28;20291;-71
2023/08/20 02:21:29;;;;;;;17.10;11.97;;;23.10;81.10;;;;;;5010432;28;20221;-71
2023/08/20 02:23:54;;;;;;;17.50;12.27;;;23.00;81.40;;;;;;5016972;28;20743;-70
2023/08/20 02:26:20;;;;;;;18.40;12.27;;;23.00;81.40;;;;;;5012934;28;20442;-72
2023/08/20 02:28:45;;;;;;;21.17;13.73;;;23.00;81.50;;;;;;5017110;28;20203;-70
2023/08/20 02:31:11;;;;;;;18.20;12.87;;;23.00;81.80;;;;;;5015629;28;20199;-70
2023/08/20 02:33:37;;;;;;;19.00;13.50;;;23.00;82.10;;;;;;5011559;28;20204;-72
2023/08/20 02:36:03;;;;;;;18.50;12.40;;;23.00;82.40;;;;;;5010961;28;20654;-72
2023/08/20 02:38:29;;;;;;;22.20;14.57;;;23.00;82.50;;;;;;5015601;28;20199;-71
2023/08/20 02:40:55;;;;;;;18.47;13.53;;;23.10;82.40;;;;;;5006106;28;21330;-71
2023/08/20 02:43:21;;;;;;;15.63;11.70;;;23.10;82.50;;;;;;5009758;28;20506;-72
2023/08/20 02:45:46;;;;;;;25.03;12.97;;;23.10;82.50;;;;;;5015869;28;20176;-71
2023/08/20 02:48:13;;;;;;;21.00;12.97;;;23.10;82.50;;;;;;5015583;28;20208;-70
2023/08/20 02:50:39;;;;;;;19.90;13.30;;;23.10;82.40;;;;;;5007912;28;20214;-71
2023/08/20 02:53:04;;;;;;;16.90;12.60;;;23.00;82.50;;;;;;5011885;28;20411;-72
2023/08/20 02:55:31;;;;;;;18.33;12.77;;;23.00;82.70;;;;;;5019646;28;20184;-70
2023/08/20 02:57:57;;;;;;;19.20;12.40;;;23.00;82.80;;;;;;5014776;28;20648;-71
2023/08/20 03:00:23;;;;;;;18.97;13.27;;;23.00;82.50;;;;;;5007533;28;20527;-70
2023/08/20 03:02:49;;;;;;;19.10;12.80;;;23.00;81.20;;;;;;5008972;28;20959;-71
2023/08/20 03:05:14;;;;;;;20.27;12.63;;;23.00;81.10;;;;;;5015497;28;20178;-71
2023/08/20 03:07:40;;;;;;;22.17;13.90;;;22.90;81.50;;;;;;5012934;28;20258;-71
2023/08/20 03:10:06;;;;;;;18.47;12.90;;;22.80;81.90;;;;;;5009209;28;20190;-70
2023/08/20 03:12:32;;;;;;;19.87;12.83;;;22.80;82.40;;;;;;5004410;28;20658;-71
2023/08/20 03:14:58;;;;;;;19.60;12.60;;;22.70;82.50;;;;;;5020385;28;20525;-70
2023/08/20 03:17:24;;;;;;;21.87;13.43;;;22.70;82.70;;;;;;5016242;28;20644;-71
2023/08/20 03:20:00;;;;;;;21.03;13.63;;;22.70;83.00;;;;;;5015846;28;20466;-71
2023/08/20 03:22:26;;;;;;;20.33;13.80;;;22.70;83.10;;;;;;5010800;28;20248;-69
2023/08/20 03:24:53;;;;;;;24.00;13.13;;;22.70;83.10;;;;;;5014290;28;20553;-71
2023/08/20 03:27:19;;;;;;;18.57;11.60;;;22.70;83.30;;;;;;5005321;28;20428;-71
2023/08/20 03:29:45;;;;;;;20.47;13.10;;;22.70;82.20;;;;;;5016427;28;20520;-71
2023/08/20 03:32:11;;;;;;;18.50;12.73;;;22.60;82.20;;;;;;5006946;28;20449;-70
2023/08/20 03:34:37;;;;;;;18.90;12.47;;;22.50;82.80;;;;;;5007411;28;20499;-71
2023/08/20 03:37:03;;;;;;;23.10;14.60;;;22.30;83.60;;;;;;5000984;28;20524;-71
2023/08/20 03:39:29;;;;;;;19.07;13.00;;;22.30;83.80;;;;;;5004113;28;20303;-71
2023/08/20 03:41:54;;;;;;;19.20;13.60;;;22.20;84.00;;;;;;5003001;28;20928;-70
2023/08/20 03:44:20;;;;;;;23.63;14.47;;;22.20;84.30;;;;;;5001654;28;20196;-71
2023/08/20 03:46:46;;;;;;;20.90;13.37;;;22.10;84.70;;;;;;5009031;28;20259;-70
2023/08/20 03:49:11;;;;;;;23.00;14.00;;;22.10;85.00;;;;;;5013395;28;20583;-71
2023/08/20 03:51:37;;;;;;;24.40;15.67;;;22.10;85.20;;;;;;5003866;28;20263;-71
2023/08/20 03:54:03;;;;;;;24.37;13.30;;;22.10;85.30;;;;;;5005162;28;20181;-71
2023/08/20 03:56:29;;;;;;;20.50;13.83;;;22.10;85.60;;;;;;5013583;28;20222;-71
2023/08/20 03:58:55;;;;;;;19.60;13.53;;;22.10;85.70;;;;;;5020315;28;20226;-71
2023/08/20 04:01:21;;;;;;;23.33;14.20;;;22.20;85.90;;;;;;5012449;28;20210;-70
2023/08/20 04:03:47;;;;;;;24.50;13.87;;;22.20;85.90;;;;;;5010255;28;20436;-71
2023/08/20 04:06:13;;;;;;;21.37;13.33;;;22.30;85.90;;;;;;5005261;28;20452;-70
2023/08/20 04:08:39;;;;;;;19.37;12.43;;;22.30;85.70;;;;;;5012859;28;20474;-71
2023/08/20 04:11:05;;;;;;;20.23;13.70;;;22.30;84.90;;;;;;5009391;28;20463;-70
2023/08/20 04:13:31;;;;;;;19.27;12.50;;;22.40;84.40;;;;;;5010230;28;20183;-71
2023/08/20 04:15:57;;;;;;;22.07;12.97;;;22.40;83.80;;;;;;5011629;28;20424;-71
2023/08/20 04:18:22;;;;;;;21.40;14.13;;;22.40;83.10;;;;;;5018211;28;20302;-70
2023/08/20 04:20:51;;;;;;;24.60;14.53;;;22.30;83.30;;;;;;5007344;28;20471;-69
2023/08/20 04:23:17;;;;;;;23.33;13.97;;;22.20;83.80;;;;;;5010703;28;20185;-70
2023/08/20 04:25:42;;;;;;;18.63;13.70;;;22.20;84.00;;;;;;5015259;28;21042;-69
2023/08/20 04:28:08;;;;;;;22.50;13.90;;;22.20;84.30;;;;;;5012765;28;20540;-70
2023/08/20 04:30:37;;;;;;;20.20;14.37;;;22.20;84.60;;;;;;5008971;28;20209;-70
2023/08/20 04:33:03;;;;;;;17.80;13.23;;;22.20;84.60;;;;;;5010686;28;20182;-72
2023/08/20 04:35:28;;;;;;;21.17;13.30;;;22.20;84.70;;;;;;5014973;28;20426;-70
2023/08/20 04:37:54;;;;;;;21.10;12.47;;;22.30;84.70;;;;;;5010803;28;20444;-71
2023/08/20 04:40:20;;;;;;;21.83;14.33;;;22.30;84.70;;;;;;5017011;28;20223;-73
2023/08/20 04:42:45;;;;;;;22.27;14.33;;;22.30;84.70;;;;;;5010784;28;20192;-72
2023/08/20 04:45:11;;;;;;;17.17;13.03;;;22.30;84.90;;;;;;5015271;28;20189;-73
2023/08/20 04:47:37;;;;;;;23.43;13.40;;;22.30;85.00;;;;;;5009179;28;20185;-72
2023/08/20 04:50:06;;;;;;;22.40;14.30;;;22.30;85.00;;;;;;5015104;28;20171;-72
2023/08/20 04:52:32;;;;;;;22.43;13.67;;;22.40;84.30;;;;;;5013855;28;20501;-73
2023/08/20 04:54:58;;;;;;;20.00;13.03;;;22.40;82.80;;;;;;5015615;28;20425;-72
2023/08/20 04:57:23;;;;;;;24.13;13.00;;;22.40;82.50;;;;;;5011737;28;20414;-72
2023/08/20 04:59:49;;;;;;;24.43;13.47;;;22.30;82.70;;;;;;5022888;28;20744;-73
2023/08/20 05:02:14;;;;;;;25.80;14.90;;;22.10;83.30;;;;;;5013584;28;20179;-72
2023/08/20 05:04:40;;;;;;;21.57;14.23;;;22.10;83.80;;;;;;5010749;28;20193;-73
2023/08/20 05:07:06;;;;;;;19.83;13.70;;;22.10;84.30;;;;;;5017513;28;20283;-72
2023/08/20 05:09:33;;;;;;;23.53;13.60;;;22.10;84.30;;;;;;5009654;28;20190;-71
2023/08/20 05:11:58;;;;;;;19.27;13.57;;;22.10;84.40;;;;;;5011853;28;20209;-72
2023/08/20 05:14:24;;;;;;;24.40;14.57;;;22.20;84.30;;;;;;5015879;28;20436;-72
2023/08/20 05:16:50;;;;;;;21.93;13.57;;;22.20;84.30;;;;;;5017352;28;20641;-74
2023/08/20 05:19:15;;;;;;;22.90;14.33;;;22.20;84.10;;;;;;5012843;28;20212;-70
2023/08/20 05:21:41;;;;;;;25.63;15.73;;;22.10;84.10;;;;;;5013760;28;20712;-71
2023/08/20 05:24:06;;;;;;;24.03;13.50;;;22.10;84.40;;;;;;5017490;28;20206;-70
2023/08/20 05:26:32;;;;;;;24.30;14.83;;;22.20;84.70;;;;;;5024868;28;20204;-72
2023/08/20 05:28:58;;;;;;;20.80;14.67;;;22.20;84.90;;;;;;5015627;28;20611;-71
2023/08/20 05:31:23;;;;;;;18.97;13.73;;;22.30;85.00;;;;;;5015942;28;20213;-72
2023/08/20 05:33:49;;;;;;;22.07;14.83;;;22.40;84.60;;;;;;5013128;28;20189;-70
2023/08/20 05:36:15;;;;;;;24.00;15.03;;;22.30;84.60;;;;;;5020730;28;20682;-70
2023/08/20 05:38:42;;;;;;;21.13;15.03;;;22.30;84.30;;;;;;5013790;28;20179;-71
2023/08/20 05:41:08;;;;;;;19.03;13.07;;;22.30;83.80;;;;;;5018489;28;20223;-70
2023/08/20 05:43:36;;;;;;;23.80;14.70;;;22.40;83.70;;;;;;5008903;28;20417;-70
2023/08/20 05:46:02;;;;;;;19.80;13.33;;;22.50;83.60;;;;;;5013413;28;20575;-70
2023/08/20 05:48:27;;;;;;;25.67;13.87;;;22.70;83.30;;;;;;5009222;28;20427;-72
2023/08/20 05:50:53;;;;;;;22.80;13.77;;;22.80;82.20;;;;;;5019421;28;21079;-70
2023/08/20 05:53:19;;;;;;;21.17;13.60;;;22.90;81.80;;;;;;5015860;28;20453;-71
2023/08/20 05:55:45;;;;;;;25.97;14.70;;;23.00;81.20;;;;;;5018062;28;20180;-71
2023/08/20 05:58:11;;;;;;;24.13;13.63;;;23.00;81.20;;;;;;5014274;28;20209;-71
2023/08/20 06:00:36;;;;;;;24.50;13.53;;;23.00;81.10;;;;;;5014797;28;20680;-71
2023/08/20 06:03:02;;;;;;;20.53;14.93;;;23.00;81.20;;;;;;5016810;28;20836;-70
2023/08/20 06:05:27;;;;;;;16.80;12.53;;;23.00;81.40;;;;;;5014553;28;20195;-70
2023/08/20 06:07:53;;;;;;;20.37;13.07;;;23.00;81.70;;;;;;5014888;28;20278;-72
2023/08/20 06:10:19;;;;;;;22.37;14.87;;;23.20;81.40;;;;;;5008374;28;20312;-72
2023/08/20 06:12:44;;;;;;;24.23;14.47;;;23.30;80.80;;;;;;5009136;28;20195;-71
2023/08/20 06:15:10;;;;;;;20.07;14.17;;;23.50;80.50;;;;;;5019623;28;20279;-70
2023/08/20 06:17:35;;;;;;;22.50;14.57;;;23.50;80.00;;;;;;5016524;28;20189;-70
2023/08/20 06:20:01;;;;;;;25.17;14.20;;;23.50;80.00;;;;;;5019414;28;20211;-70
2023/08/20 06:22:26;;;;;;;19.17;13.37;;;23.60;79.90;;;;;;5014544;28;20201;-71
2023/08/20 06:24:52;;;;;;;19.13;14.30;;;23.80;79.70;;;;;;5012951;28;20185;-73
2023/08/20 06:27:18;;;;;;;18.33;13.87;;;24.00;79.20;;;;;;5022331;28;20187;-73
2023/08/20 06:29:43;;;;;;;19.67;13.37;;;24.10;78.60;;;;;;5016473;28;20537;-71
2023/08/20 06:32:09;;;;;;;18.70;13.77;;;24.30;77.80;;;;;;5007820;28;20211;-70
2023/08/20 06:34:36;;;;;;;20.17;13.43;;;24.50;77.30;;;;;;5012401;28;20182;-70
2023/08/20 06:37:02;;;;;;;22.60;14.80;;;24.60;76.70;;;;;;5018389;28;20179;-71
2023/08/20 06:39:27;;;;;;;18.30;12.50;;;24.50;76.70;;;;;;5008308;28;20480;-72
2023/08/20 06:41:53;;;;;;;22.13;14.27;;;24.50;77.00;;;;;;5017915;28;20431;-71
2023/08/20 06:44:18;;;;;;;17.30;12.90;;;24.70;76.20;;;;;;5009013;28;20199;-72
2023/08/20 06:46:44;;;;;;;17.83;12.63;;;24.80;76.10;;;;;;5012404;28;20197;-71
2023/08/20 06:49:09;;;;;;;18.67;12.90;;;24.90;75.90;;;;;;5013762;28;20300;-70
2023/08/20 06:51:35;;;;;;;17.67;12.53;;;25.10;75.70;;;;;;5011569;28;20206;-72
2023/08/20 06:54:02;;;;;;;19.67;13.63;;;25.20;75.50;;;;;;5008743;28;20186;-71
2023/08/20 06:56:27;;;;;;;15.97;12.40;;;25.30;75.10;;;;;;5015625;28;20192;-72
2023/08/20 06:58:53;;;;;;;21.03;13.00;;;25.40;74.50;;;;;;5014968;28;20422;-71
2023/08/20 07:01:19;;;;;;;20.47;15.20;;;25.50;73.90;;;;;;5017240;28;20227;-72
2023/08/20 07:03:45;;;;;;;17.97;12.77;;;25.50;73.60;;;;;;5013087;28;20204;-72
2023/08/20 07:06:11;;;;;;;20.30;13.60;;;25.50;73.90;;;;;;5018627;28;20433;-72
2023/08/20 07:08:40;;;;;;;19.70;14.20;;;25.60;73.60;;;;;;5015344;28;20197;-71
2023/08/20 07:11:06;;;;;;;20.40;13.30;;;25.70;73.30;;;;;;5011968;28;20467;-72
2023/08/20 07:13:32;;;;;;;18.97;13.50;;;25.80;73.20;;;;;;5012982;28;20490;-71
2023/08/20 07:15:57;;;;;;;22.80;13.87;;;25.90;73.20;;;;;;5019515;28;20515;-71
2023/08/20 07:18:23;;;;;;;22.40;14.50;;;25.90;72.40;;;;;;5012890;28;20197;-71
2023/08/20 07:20:50;;;;;;;22.87;13.67;;;25.70;73.00;;;;;;5014970;28;20252;-70
2023/08/20 07:23:16;;;;;;;22.20;14.60;;;25.80;73.00;;;;;;5008894;28;20572;-71
2023/08/20 07:25:42;;;;;;;22.03;14.03;;;25.50;73.30;;;;;;5009775;28;20423;-71
2023/08/20 07:28:08;;;;;;;18.50;13.50;;;25.70;73.60;;;;;;5018359;28;20176;-71
2023/08/20 07:30:35;;;;;;;24.63;15.50;;;25.80;73.50;;;;;;5006472;28;20207;-69
2023/08/20 07:33:01;;;;;;;19.63;13.27;;;25.70;73.30;;;;;;5018673;28;20582;-70
2023/08/20 07:35:27;;;;;;;21.37;14.73;;;25.70;73.50;;;;;;5006898;28;20873;-72
2023/08/20 07:37:53;;;;;;;22.63;15.60;;;25.60;73.60;;;;;;5015593;28;20432;-71
2023/08/20 07:40:19;;;;;;;22.80;15.33;;;25.60;73.60;;;;;;5003289;28;20351;-71
2023/08/20 07:42:44;;;;;;;20.50;15.17;;;25.80;73.30;;;;;;5010825;28;20185;-72
2023/08/20 07:45:10;;;;;;;21.27;13.73;;;26.00;72.60;;;;;;5011262;28;20443;-72
2023/08/20 07:47:37;;;;;;;21.83;15.73;;;26.20;72.30;;;;;;5017964;28;20200;-72
2023/08/20 07:50:04;;;;;;;29.13;14.80;;;26.30;71.40;;;;;;5011838;28;20920;-70
2023/08/20 07:52:30;;;;;;;22.83;14.30;;;26.20;71.80;;;;;;5015815;28;20440;-72
2023/08/20 07:54:56;;;;;;;27.53;14.97;;;26.40;71.70;;;;;;5009013;28;20496;-72
2023/08/20 07:57:23;;;;;;;26.33;14.17;;;26.50;71.30;;;;;;5014533;28;20235;-71
2023/08/20 07:59:49;;;;;;;20.17;14.83;;;26.60;71.30;;;;;;5013388;28;20236;-70
2023/08/20 08:02:14;;;;;;;23.37;13.60;;;26.40;71.30;;;;;;5013749;28;20438;-70
2023/08/20 08:04:40;;;;;;;19.00;13.73;;;26.40;71.80;;;;;;5012818;28;20482;-72
2023/08/20 08:07:06;;;;;;;19.13;13.70;;;26.50;71.60;;;;;;5014929;28;20226;-73
2023/08/20 08:09:32;;;;;;;28.00;15.90;;;26.50;71.40;;;;;;5007362;28;20536;-72
2023/08/20 08:11:59;;;;;;;23.27;14.97;;;26.50;71.40;;;;;;5009841;28;20206;-71
2023/08/20 08:14:24;;;;;;;22.97;16.13;;;26.50;71.60;;;;;;5010443;28;20297;-74
2023/08/20 08:16:50;;;;;;;19.80;14.33;;;26.50;71.10;;;;;;5004547;28;20963;-71
2023/08/20 08:19:17;;;;;;;23.87;16.60;;;26.60;71.40;;;;;;5010280;28;20300;-73
2023/08/20 08:21:44;;;;;;;19.67;14.40;;;26.40;71.40;;;;;;5010711;28;20459;-71
2023/08/20 08:24:11;;;;;;;22.03;16.30;;;26.50;71.80;;;;;;5015072;28;20488;-72
2023/08/20 08:26:36;;;;;;;18.70;14.50;;;26.50;71.10;;;;;;5013330;28;20442;-71
2023/08/20 08:29:07;;;;;;;19.60;15.30;;;26.60;71.10;;;;;;5019862;28;20445;-72
2023/08/20 08:31:33;;;;;;;23.60;15.90;;;26.60;71.00;;;;;;5013895;28;20259;-71
2023/08/20 08:33:59;;;;;;;24.63;15.70;;;26.80;70.70;;;;;;5012149;28;20861;-72
2023/08/20 08:36:25;;;;;;;21.57;15.00;;;26.90;69.80;;;;;;5021039;28;20414;-73
2023/08/20 08:38:51;;;;;;;23.23;13.77;;;27.00;69.70;;;;;;5017979;28;20424;-72
2023/08/20 08:41:18;;;;;;;18.40;14.10;;;27.10;69.80;;;;;;5011665;28;20221;-70
2023/08/20 08:43:46;;;;;;;19.83;14.67;;;27.20;69.50;;;;;;5026930;28;20438;-71
2023/08/20 08:46:15;;;;;;;22.50;14.90;;;27.20;69.40;;;;;;5019414;28;20427;-73
2023/08/20 08:48:43;;;;;;;20.60;16.00;;;27.40;69.20;;;;;;5016307;28;20443;-69
2023/08/20 08:51:08;;;;;;;25.30;16.40;;;27.50;68.60;;;;;;5011847;28;20980;-72
2023/08/20 08:53:35;;;;;;;21.90;15.50;;;27.50;68.20;;;;;;5014261;28;20416;-70
2023/08/20 08:56:02;;;;;;;21.00;14.83;;;27.20;68.90;;;;;;5018621;28;20216;-73
2023/08/20 08:58:28;;;;;;;21.00;15.20;;;27.30;68.60;;;;;;5019685;28;20420;-72
2023/08/20 09:00:54;;;;;;;18.30;13.87;;;27.40;68.50;;;;;;5013087;28;20484;-73
2023/08/20 09:03:19;;;;;;;21.80;15.73;;;27.60;67.50;;;;;;5014413;28;20185;-73
2023/08/20 09:05:49;;;;;;;22.23;15.90;;;27.50;68.30;;;;;;5011471;28;20466;-73
2023/08/20 09:08:22;;;;;;;24.20;16.10;;;27.60;68.00;;;;;;5011892;28;20200;-70
2023/08/20 09:10:52;;;;;;;24.80;16.00;;;27.70;68.20;;;;;;5011905;28;20478;-73
2023/08/20 09:13:21;;;;;;;20.30;15.20;;;27.60;68.20;;;;;;5020605;28;20621;-71
2023/08/20 09:15:53;;;;;;;25.43;15.93;;;27.60;68.50;;;;;;5018094;28;20888;-70
2023/08/20 09:18:19;;;;;;;22.00;16.50;;;27.60;68.00;;;;;;5020814;28;20453;-71
2023/08/20 09:20:47;;;;;;;19.57;14.50;;;27.40;68.00;;;;;;5011825;28;20486;-71
2023/08/20 09:23:13;;;;;;;22.90;15.20;;;27.50;68.30;;;;;;5012866;28;20427;-73
2023/08/20 09:25:39;;;;;;;20.53;14.63;;;27.70;67.60;;;;;;5016702;28;20499;-72
2023/08/20 09:28:05;;;;;;;23.40;17.50;;;27.90;67.30;;;;;;5010536;28;20507;-73
2023/08/20 09:30:31;;;;;;;21.97;15.00;;;27.60;67.90;;;;;;5014950;28;20220;-72
2023/08/20 09:33:04;;;;;;;24.63;16.70;;;27.50;68.90;;;;;;5015074;28;20428;-71
2023/08/20 09:35:30;;;;;;;20.03;15.90;;;27.60;68.20;;;;;;5022113;28;20433;-72
2023/08/20 09:38:00;;;;;;;24.80;15.53;;;27.80;68.00;;;;;;5014706;28;20421;-70
2023/08/20 09:40:26;;;;;;;25.10;15.23;;;28.00;67.00;;;;;;5014831;28;20225;-71
2023/08/20 09:42:54;;;;;;;23.70;15.37;;;28.00;67.00;;;;;;5013335;28;20433;-71
2023/08/20 09:45:21;;;;;;;19.73;14.20;;;27.90;67.30;;;;;;5012146;28;20457;-71
2023/08/20 09:47:49;;;;;;;24.60;16.27;;;28.10;66.70;;;;;;5013601;28;20434;-72
2023/08/20 09:50:19;;;;;;;25.10;17.23;;;28.20;66.10;;;;;;5016448;28;20478;-71
2023/08/20 09:52:55;;;;;;;18.33;14.60;;;28.30;65.70;;;;;;5012636;28;20937;-71
2023/08/20 09:55:22;;;;;;;22.17;14.67;;;28.50;65.60;;;;;;5014125;28;20436;-73
2023/08/20 09:57:48;;;;;;;21.37;15.50;;;28.70;64.80;;;;;;5016180;28;20429;-71
2023/08/20 10:00:14;;;;;;;20.50;13.60;;;28.60;64.50;;;;;;5017404;28;20511;-72
2023/08/20 10:02:41;;;;;;;24.60;14.63;;;28.30;64.80;;;;;;5011262;28;20429;-72
2023/08/20 10:05:08;;;;;;;20.90;14.63;;;28.20;65.10;;;;;;5015172;28;20521;-70
2023/08/20 10:07:36;;;;;;;19.77;14.00;;;28.20;65.00;;;;;;5021532;28;20433;-71
2023/08/20 10:10:04;;;;;;;21.60;14.30;;;28.30;65.00;;;;;;5000956;28;20438;-71
2023/08/20 10:12:31;;;;;;;17.67;14.00;;;28.30;65.00;;;;;;5011090;28;20421;-71
2023/08/20 10:14:58;;;;;;;20.90;13.20;;;28.30;63.90;;;;;;5014927;28;20796;-71
2023/08/20 10:17:24;;;;;;;18.67;11.90;;;28.40;63.50;;;;;;5015725;28;20411;-72
2023/08/20 10:19:52;;;;;;;18.83;12.40;;;28.50;62.90;;;;;;5008791;28;20456;-73
2023/08/20 10:22:18;;;;;;;17.23;13.50;;;28.70;62.50;;;;;;5017857;28;20535;-72
2023/08/20 10:24:52;;;;;;;17.50;12.80;;;29.00;61.60;;;;;;5021380;28;20425;-71
2023/08/20 10:27:31;;;;;;;23.17;15.03;;;29.10;62.00;;;;;;5019533;28;20264;-71
2023/08/20 10:29:57;;;;;;;20.07;12.83;;;29.20;61.90;;;;;;5015449;28;20451;-70
2023/08/20 10:32:49;;;;;;;17.37;12.40;;;29.20;61.30;;;;;;5009300;28;20871;-73
2023/08/20 10:35:22;;;;;;;17.60;12.33;;;29.20;61.30;;;;;;5014817;28;20431;-72
2023/08/20 10:38:05;;;;;;;19.03;13.30;;;29.40;60.90;;;;;;5009773;28;20432;-73
2023/08/20 10:40:56;;;;;;;16.37;12.00;;;29.80;60.30;;;;;;5010522;28;20557;-72
2023/08/20 10:43:34;;;;;;;22.30;13.73;;;30.10;59.60;;;;;;5012240;28;20441;-72
2023/08/20 10:46:19;;;;;;;21.43;12.10;;;30.00;59.20;;;;;;5015602;28;20432;-70
2023/08/20 10:49:02;;;;;;;15.60;13.43;;;30.30;59.10;;;;;;5011873;28;20428;-71
2023/08/20 10:51:34;;;;;;;21.50;12.93;;;30.80;58.40;;;;;;5016632;28;20498;-72
2023/08/20 10:53:59;;;;;;;17.83;13.13;;;31.10;57.80;;;;;;5009001;28;20992;-72
2023/08/20 10:56:40;;;;;;;14.80;11.80;;;30.70;59.20;;;;;;5005396;28;20445;-72
2023/08/20 10:59:17;;;;;;;20.00;13.67;;;31.20;58.80;;;;;;5019373;28;20170;-72
2023/08/20 11:01:47;;;;;;;18.20;12.03;;;30.60;59.20;;;;;;5007173;28;20456;-71
2023/08/20 11:04:15;;;;;;;18.97;12.87;;;30.70;59.30;;;;;;5013974;28;20421;-73
2023/08/20 11:06:41;;;;;;;17.77;12.13;;;31.30;58.40;;;;;;5008790;28;20520;-71
2023/08/20 11:09:06;;;;;;;15.63;12.33;;;32.00;57.40;;;;;;5016863;28;20499;-72
2023/08/20 11:11:32;;;;;;;19.50;12.80;;;32.20;57.20;;;;;;5004343;28;20268;-73
2023/08/20 11:14:13;;;;;;;19.23;12.07;;;32.80;56.40;;;;;;5012683;28;20190;-72
2023/08/20 11:16:39;;;;;;;17.07;12.00;;;33.30;55.40;;;;;;5005201;28;20190;-71
2023/08/20 11:19:08;;;;;;;14.33;10.73;;;33.50;54.40;;;;;;5021033;28;20432;-71
2023/08/20 11:21:41;;;;;;;15.37;12.60;;;32.90;55.80;;;;;;5012467;28;20232;-74
2023/08/20 11:24:07;;;;;;;16.80;12.47;;;32.40;56.50;;;;;;5021550;28;20413;-73
2023/08/20 11:26:36;;;;;;;15.57;11.63;;;31.30;58.10;;;;;;5014058;28;20417;-70
2023/08/20 11:29:13;;;;;;;16.43;12.50;;;31.50;58.20;;;;;;5018857;28;20429;-73
2023/08/20 11:31:39;;;;;;;14.40;12.83;;;32.00;57.00;;;;;;5005489;28;20476;-72
2023/08/20 11:34:06;;;;;;;15.73;11.27;;;32.20;56.60;;;;;;5011479;28;20460;-72
2023/08/20 11:36:32;;;;;;;19.23;11.37;;;32.30;56.50;;;;;;5019161;28;20436;-72
2023/08/20 11:38:57;;;;;;;15.27;12.33;;;32.70;56.00;;;;;;5012292;28;20446;-71
2023/08/20 11:41:25;;;;;;;21.50;11.20;;;32.90;55.00;;;;;;5009354;28;20504;-72
2023/08/20 11:43:53;;;;;;;16.00;11.67;;;32.10;56.60;;;;;;5011003;28;20174;-72
2023/08/20 11:46:21;;;;;;;20.23;11.07;;;32.30;56.40;;;;;;5014750;28;20431;-71
2023/08/20 11:49:06;;;;;;;14.90;10.40;;;32.50;56.10;;;;;;5008348;28;20923;-71
2023/08/20 11:51:39;;;;;;;14.23;11.13;;;32.70;55.80;;;;;;5012781;28;20525;-73
2023/08/20 11:54:16;;;;;;;13.63;10.57;;;33.10;55.20;;;;;;5010934;28;20921;-72
2023/08/20 11:56:48;;;;;;;13.27;11.00;;;33.50;54.40;;;;;;5011461;28;20952;-73
2023/08/20 11:59:15;;;;;;;17.03;11.77;;;33.90;53.70;;;;;;5015989;28;20785;-71
2023/08/20 12:01:40;;;;;;;14.77;11.07;;;34.10;53.00;;;;;;5014826;28;20483;-71
2023/08/20 12:04:08;;;;;;;15.03;10.70;;;33.90;53.20;;;;;;5011260;28;20425;-72
2023/08/20 12:06:35;;;;;;;16.80;11.27;;;34.00;52.90;;;;;;5016188;28;20190;-71
2023/08/20 12:09:04;;;;;;;15.33;11.30;;;34.20;52.90;;;;;;5011460;28;20533;-71
2023/08/20 12:11:30;;;;;;;16.07;12.80;;;33.70;53.40;;;;;;5026412;28;20476;-71
2023/08/20 12:13:56;;;;;;;13.20;11.10;;;33.60;53.30;;;;;;5016322;28;20474;-72
2023/08/20 12:16:24;;;;;;;14.90;11.30;;;33.00;54.40;;;;;;5019347;28;20429;-75
2023/08/20 12:18:52;;;;;;;48.60;34.40;;;32.70;54.90;;;;;;5021607;28;20443;-73
2023/08/20 12:21:18;;;;;;;15.63;10.77;;;33.20;54.60;;;;;;5011102;28;20507;-71
2023/08/20 12:23:43;;;;;;;14.60;9.97;;;32.90;54.60;;;;;;5012284;28;20428;-71
2023/08/20 12:26:09;;;;;;;13.60;10.40;;;32.50;55.20;;;;;;5002556;28;20186;-70
2023/08/20 12:28:35;;;;;;;16.97;11.20;;;33.00;54.60;;;;;;5016249;28;20189;-73